createdAt,value
2018-08-06T00:02:51.058Z,17.00
2018-08-06T00:08:56.671Z,16.90
2018-08-06T00:15:02.283Z,16.80
2018-08-06T00:21:07.921Z,16.70
2018-08-06T00:27:13.501Z,16.60
2018-08-06T00:33:19.073Z,16.60
2018-08-06T00:39:24.666Z,16.80
2018-08-06T00:45:30.482Z,16.70
2018-08-06T00:51:36.303Z,16.50
2018-08-06T00:57:42.394Z,16.20
2018-08-06T01:03:47.955Z,16.10
2018-08-06T01:09:53.592Z,15.90
2018-08-06T01:15:59.183Z,16.00
2018-08-06T01:22:05.007Z,15.90
2018-08-06T01:28:10.948Z,15.90
2018-08-06T01:34:16.747Z,15.90
2018-08-06T01:40:22.326Z,15.80
2018-08-06T01:46:27.918Z,15.70
2018-08-06T01:52:33.562Z,15.60
2018-08-06T01:58:39.148Z,15.40
2018-08-06T02:04:44.703Z,15.30
2018-08-06T02:10:50.293Z,15.20
2018-08-06T02:16:55.943Z,15.10
2018-08-06T02:23:01.504Z,15.10
2018-08-06T02:29:07.166Z,15.10
2018-08-06T02:35:14.693Z,15.20
2018-08-06T02:41:20.279Z,15.00
2018-08-06T02:47:25.922Z,14.90
2018-08-06T02:53:31.570Z,14.70
2018-08-06T02:59:37.171Z,14.60
2018-08-06T03:05:42.759Z,14.40
2018-08-06T03:11:48.337Z,14.50
2018-08-06T03:17:53.892Z,14.40
2018-08-06T03:23:59.530Z,14.30
2018-08-06T03:30:07.296Z,14.20
2018-08-06T03:36:13.020Z,14.20
2018-08-06T03:42:18.665Z,14.10
2018-08-06T03:48:24.314Z,13.90
2018-08-06T03:54:29.931Z,13.90
2018-08-06T04:00:35.548Z,13.80
2018-08-06T04:06:41.110Z,13.80
2018-08-06T04:12:47.073Z,13.80
2018-08-06T04:18:52.634Z,13.70
2018-08-06T04:24:58.244Z,13.60
2018-08-06T04:31:03.849Z,13.70
2018-08-06T04:37:09.477Z,13.80
2018-08-06T04:43:15.122Z,14.00
2018-08-06T04:49:20.708Z,14.00
2018-08-06T04:55:26.344Z,14.20
2018-08-06T05:01:31.954Z,14.40
2018-08-06T05:07:37.571Z,14.60
2018-08-06T05:13:43.200Z,14.90
2018-08-06T05:19:48.754Z,15.00
2018-08-06T05:25:54.362Z,15.30
2018-08-06T05:31:59.968Z,15.60
2018-08-06T05:38:05.770Z,15.80
2018-08-06T05:44:11.344Z,15.80
2018-08-06T05:50:16.969Z,16.00
2018-08-06T05:56:22.568Z,16.10
2018-08-06T06:02:28.149Z,16.40
2018-08-06T06:08:33.819Z,16.80
2018-08-06T06:14:39.441Z,17.30
2018-08-06T06:20:45.054Z,17.80
2018-08-06T06:26:50.654Z,18.30
2018-08-06T06:32:56.260Z,18.70
2018-08-06T06:39:01.842Z,18.80
2018-08-06T06:45:09.034Z,19.30
2018-08-06T06:51:14.645Z,19.60
2018-08-06T06:57:20.308Z,20.10
2018-08-06T07:03:25.900Z,20.50
2018-08-06T07:09:31.542Z,20.70
2018-08-06T07:15:37.197Z,21.20
2018-08-06T07:21:42.790Z,21.40
2018-08-06T07:27:49.281Z,21.70
2018-08-06T07:33:55.348Z,22.10
2018-08-06T07:40:01.387Z,22.50
2018-08-06T07:46:07.707Z,23.20
2018-08-06T07:52:13.879Z,23.70
2018-08-06T07:58:19.784Z,24.40
2018-08-06T08:04:25.874Z,24.50
2018-08-06T08:10:31.919Z,24.80
2018-08-06T08:16:37.895Z,25.20
2018-08-06T08:22:44.132Z,25.30
2018-08-06T08:28:50.348Z,26.00
2018-08-06T08:34:56.381Z,26.40
2018-08-06T08:41:02.398Z,26.10
2018-08-06T08:47:08.456Z,26.60
2018-08-06T08:53:14.562Z,26.70
2018-08-06T08:59:20.580Z,27.10
2018-08-06T09:05:26.672Z,27.30
2018-08-06T09:11:32.584Z,27.60
2018-08-06T09:17:38.652Z,28.00
2018-08-06T09:23:44.621Z,28.30
2018-08-06T09:29:50.638Z,28.70
2018-08-06T09:35:56.635Z,29.00
2018-08-06T09:42:02.724Z,29.50
2018-08-06T09:48:08.776Z,29.70
2018-08-06T09:54:14.757Z,29.70
2018-08-06T10:00:27.203Z,30.00
2018-08-06T10:06:33.269Z,30.40
2018-08-06T10:12:39.247Z,30.70
2018-08-06T10:18:45.278Z,30.80
2018-08-06T10:24:51.211Z,31.30
2018-08-06T10:30:57.451Z,31.30
2018-08-06T10:37:03.396Z,31.60
2018-08-06T10:43:09.409Z,32.50
2018-08-06T10:49:15.305Z,32.00
2018-08-06T10:55:21.406Z,32.60
2018-08-06T11:01:27.411Z,32.90
2018-08-06T11:07:33.358Z,33.40
2018-08-06T11:13:39.365Z,33.40
2018-08-06T11:19:45.112Z,33.90
2018-08-06T11:25:50.725Z,34.50
2018-08-06T11:31:56.385Z,34.70
2018-08-06T11:38:02.016Z,35.20
2018-08-06T11:44:08.267Z,35.40
2018-08-06T11:50:13.978Z,36.50
2018-08-06T11:56:19.580Z,36.50
2018-08-06T12:02:25.644Z,37.50
2018-08-06T12:08:31.579Z,37.90
2018-08-06T12:14:37.457Z,37.50
2018-08-06T12:20:43.316Z,37.70
2018-08-06T12:26:48.969Z,38.50
2018-08-06T12:32:55.102Z,39.20
2018-08-06T12:39:12.055Z,38.00
2018-08-06T12:45:18.317Z,38.10
2018-08-06T12:51:24.040Z,38.80
2018-08-06T12:57:29.678Z,39.30
2018-08-06T13:03:35.455Z,40.00
2018-08-06T13:09:41.427Z,40.60
2018-08-06T13:15:47.349Z,41.40
2018-08-06T13:21:53.317Z,42.10
2018-08-06T13:27:59.043Z,42.20
2018-08-06T13:34:04.805Z,42.20
2018-08-06T13:40:11.428Z,42.90
2018-08-06T13:46:17.117Z,43.40
2018-08-06T13:52:22.739Z,43.00
2018-08-06T13:58:28.472Z,42.70
2018-08-06T14:04:34.101Z,43.70
2018-08-06T14:10:39.759Z,43.30
2018-08-06T14:16:45.599Z,43.30
2018-08-06T14:22:51.548Z,43.30
2018-08-06T14:28:57.604Z,43.40
2018-08-06T14:35:03.549Z,43.40
2018-08-06T14:41:09.596Z,43.10
2018-08-06T14:47:15.566Z,42.30
2018-08-06T14:53:21.659Z,42.00
2018-08-06T14:59:27.671Z,42.00
2018-08-06T15:05:33.690Z,43.80
2018-08-06T15:11:39.495Z,42.90
2018-08-06T15:17:45.672Z,43.40
2018-08-06T15:23:51.484Z,42.50
2018-08-06T15:29:57.034Z,42.70
2018-08-06T15:36:02.978Z,43.30
2018-08-06T15:42:08.995Z,44.40
2018-08-06T15:48:14.957Z,43.10
2018-08-06T15:54:20.858Z,42.90
2018-08-06T16:00:26.982Z,42.70
2018-08-06T16:06:32.935Z,43.60
2018-08-06T16:12:38.953Z,44.00
2018-08-06T16:18:44.849Z,44.10
2018-08-06T16:24:50.911Z,44.50
2018-08-06T16:30:56.733Z,44.60
2018-08-06T16:37:02.622Z,45.20
2018-08-06T16:43:08.877Z,45.90
2018-08-06T16:49:14.947Z,46.30
2018-08-06T16:55:20.626Z,46.60
2018-08-06T17:07:31.506Z,44.30
2018-08-06T17:13:37.091Z,44.00
2018-08-06T17:19:42.751Z,44.10
2018-08-06T17:25:48.349Z,44.70
2018-08-06T17:31:53.924Z,44.90
2018-08-06T17:37:59.526Z,44.30
2018-08-06T17:44:05.201Z,43.10
2018-08-06T17:50:13.918Z,41.80
2018-08-06T17:56:19.530Z,41.60
2018-08-06T18:02:25.215Z,41.50
2018-08-06T18:08:30.794Z,38.80
2018-08-06T18:14:36.440Z,36.80
2018-08-06T18:20:42.060Z,36.30
2018-08-06T18:26:47.653Z,35.30
2018-08-06T18:32:53.355Z,34.70
2018-08-06T18:38:58.926Z,34.00
2018-08-06T18:45:06.032Z,32.60
2018-08-06T18:51:11.629Z,31.30
2018-08-06T18:57:17.254Z,30.20
2018-08-06T19:03:22.853Z,29.40
2018-08-06T19:09:28.426Z,28.70
2018-08-06T19:15:34.028Z,28.20
2018-08-06T19:21:39.603Z,27.80
2018-08-06T19:27:45.237Z,27.50
2018-08-06T19:33:50.741Z,27.20
2018-08-06T19:39:56.304Z,26.90
2018-08-06T19:46:01.845Z,26.70
2018-08-06T19:52:07.670Z,26.40
2018-08-06T19:58:13.452Z,26.20
2018-08-06T20:04:18.992Z,26.10
2018-08-06T20:10:24.676Z,25.90
2018-08-06T20:16:30.222Z,25.80
2018-08-06T20:22:35.827Z,25.70
2018-08-06T20:28:41.493Z,25.60
2018-08-06T20:34:47.107Z,25.50
2018-08-06T20:40:52.688Z,25.40
2018-08-06T20:46:58.363Z,25.20
2018-08-06T20:53:03.932Z,25.10
2018-08-06T20:59:09.565Z,24.90
2018-08-06T21:05:15.266Z,24.70
2018-08-06T21:11:20.878Z,24.50
2018-08-06T21:17:26.470Z,24.20
2018-08-06T21:23:32.109Z,24.10
2018-08-06T21:29:37.667Z,24.00
2018-08-06T21:35:43.324Z,23.90
2018-08-06T21:41:48.939Z,23.80
2018-08-06T21:47:54.588Z,23.70
2018-08-06T21:54:00.299Z,23.60
2018-08-06T22:00:11.277Z,23.50
2018-08-06T22:06:17.089Z,23.50
2018-08-06T22:12:23.517Z,23.40
2018-08-06T22:18:29.202Z,23.40
2018-08-06T22:24:34.815Z,23.30
2018-08-06T22:30:40.463Z,23.30
2018-08-06T22:36:46.061Z,23.20
2018-08-06T22:42:51.617Z,23.20
2018-08-06T22:48:57.216Z,23.10
2018-08-06T22:55:02.798Z,23.10
2018-08-06T23:01:10.581Z,23.00
2018-08-06T23:07:16.495Z,23.00
2018-08-06T23:13:22.424Z,23.00
2018-08-06T23:19:28.310Z,22.90
2018-08-06T23:25:34.026Z,22.80
2018-08-06T23:31:39.608Z,22.70
2018-08-06T23:37:45.667Z,22.60
2018-08-06T23:43:51.343Z,22.60
2018-08-06T23:49:56.917Z,22.50
2018-08-06T23:56:02.561Z,22.60
